Página principal
METAR-TAF:

METAR-TAF

Aeroportos :

Aeroporto Internacional de Dubai

Dubai, Emirados Árabes Unidos

latitude: 25-15-10N, longitude: 055-21-52E, altura: 8 m

Observação actual do tempo

O boletim foi feito há 41 minutos, às 22:00 UTC
Vento 4 kt com direcção variável
Temperatura 34°C
Humidade 60%
Pressão 1007 hPa
Visibilidade 10 km ou mais
sem nuvens abaixo de 1500 metros e sem cumulonimbus

METAR: OMDB 222200Z VRB04KT CAVOK 34/25 Q1007 NOSIG

Hora: 02:41 (22:41 UTC)

Previsão

O boletim foi feito há 5 horas e 42 minutos, às 16:59 UTC
Previsão válida de 22 às 18 UTC a 24 às 00 UTC
Vento 5 kt de este
Visibilidade 10 km ou mais
sem nuvens abaixo de 1500 metros e sem cumulonimbus
Tornando-se
de 23 às 08 UTC a 23 às 10 UTC
Vento 12 kt de norte
Tornando-se
de 23 às 15 UTC a 23 às 17 UTC
Vento 5 kt de este

TAF: OMDB 221659Z 2218/2400 09005KT CAVOK BECMG 2308/2310 35012KT BECMG 2315/2317 08005KT

Observações e previsões do tempo de mais de 4000 aeroportos (mensagens METAR e TAF).

As estações disponíveis são os pontos amarelos e vermelhos sobre o mapa.

Mova o rato sobre o mapa para ver o nome da estação.

Depois clique no ponto para visualizar as observações e previsões meteorológicas.

Para alterar o mapa : clique nos botões verdes com uma cruz preta para aumentar o zoom; no botão verde com uma pitada de zoom; ou nas setas verdes para mapas adjacentes.


METAR-TAF: